createdAt,value
2022-12-05T00:00:46.707Z,100957.72
2022-12-05T00:05:48.298Z,100958.00
2022-12-05T00:10:49.822Z,100961.97
2022-12-05T00:15:51.371Z,100950.63
2022-12-05T00:20:52.959Z,100965.25
2022-12-05T00:25:54.453Z,100966.75
2022-12-05T00:30:56.032Z,100967.00
2022-12-05T00:36:05.522Z,100973.84
2022-12-05T00:41:10.108Z,100971.66
2022-12-05T00:46:17.392Z,100971.78
2022-12-05T00:51:25.267Z,100961.41
2022-12-05T00:56:29.392Z,100963.59
2022-12-05T01:01:39.854Z,100967.00
2022-12-05T01:06:42.329Z,100966.34
2022-12-05T01:11:44.559Z,100967.00
2022-12-05T01:16:48.130Z,100966.03
2022-12-05T01:21:49.881Z,100976.44
2022-12-05T01:26:51.611Z,100977.66
2022-12-05T01:31:54.216Z,100976.72
2022-12-05T01:36:55.729Z,100985.31
2022-12-05T01:41:57.218Z,100995.53
2022-12-05T01:46:58.706Z,100998.41
2022-12-05T01:52:10.382Z,101005.63
2022-12-05T01:57:13.835Z,101001.09
2022-12-05T02:02:15.670Z,101004.88
2022-12-05T02:07:19.212Z,101003.63
2022-12-05T02:12:21.814Z,100998.69
2022-12-05T02:17:29.157Z,101002.69
2022-12-05T02:23:08.148Z,100998.59
2022-12-05T02:28:09.568Z,101000.81
2022-12-05T02:33:29.936Z,101002.03
2022-12-05T02:38:35.943Z,101010.75
2022-12-05T02:43:48.264Z,101007.06
2022-12-05T02:48:54.249Z,101010.44
2022-12-05T02:53:59.571Z,101008.94
2022-12-05T02:59:01.554Z,101006.84
2022-12-05T03:04:05.040Z,101010.63
2022-12-05T03:09:22.301Z,101014.56
2022-12-05T03:14:28.835Z,101019.84
2022-12-05T03:19:37.095Z,101023.81
2022-12-05T03:24:40.649Z,101025.63
2022-12-05T03:29:54.005Z,101021.75
2022-12-05T03:35:03.541Z,101027.78
2022-12-05T03:40:13.300Z,101030.88
2022-12-05T03:45:25.061Z,101034.41
2022-12-05T03:50:29.119Z,101031.72
2022-12-05T03:55:35.695Z,101038.09
2022-12-05T04:00:43.149Z,101047.53
2022-12-05T04:05:59.097Z,101047.53
2022-12-05T04:11:05.176Z,101049.06
2022-12-05T04:16:20.545Z,101046.47
2022-12-05T04:21:29.528Z,101047.69
2022-12-05T04:26:32.577Z,101044.38
2022-12-05T04:31:43.886Z,101052.59
2022-12-05T04:36:54.152Z,101060.81
2022-12-05T04:42:06.354Z,101056.47
2022-12-05T04:47:10.732Z,101062.59
2022-12-05T04:52:13.289Z,101066.69
2022-12-05T04:57:53.737Z,101052.25
2022-12-05T05:03:02.971Z,101055.53
2022-12-05T05:08:04.917Z,101056.25
2022-12-05T05:13:06.537Z,101057.88
2022-12-05T05:18:09.808Z,101062.81
2022-12-05T05:23:11.327Z,101069.63
2022-12-05T05:28:12.808Z,101071.41
2022-12-05T05:33:14.587Z,101083.28
2022-12-05T05:38:16.069Z,101077.97
2022-12-05T05:43:17.546Z,101067.63
2022-12-05T05:48:19.038Z,101077.84
2022-12-05T05:53:20.542Z,101075.03
2022-12-05T05:58:22.442Z,101081.50
2022-12-05T06:03:24.126Z,101076.44
2022-12-05T06:08:25.885Z,101090.66
2022-12-05T06:13:27.558Z,101097.84
2022-12-05T06:18:29.037Z,101095.38
2022-12-05T06:23:30.540Z,101098.31
2022-12-05T06:28:32.522Z,101098.53
2022-12-05T06:33:34.060Z,101094.53
2022-12-05T06:38:39.154Z,101100.78
2022-12-05T06:43:43.694Z,101101.63
2022-12-05T06:48:45.212Z,101111.13
2022-12-05T06:53:47.019Z,101111.81
2022-12-05T06:58:49.995Z,101119.84
2022-12-05T07:03:51.509Z,101123.69
2022-12-05T07:08:53.054Z,101131.00
2022-12-05T07:13:54.826Z,101141.13
2022-12-05T07:18:56.360Z,101143.09
2022-12-05T07:23:57.852Z,101150.41
2022-12-05T07:28:59.399Z,101149.34
2022-12-05T07:34:00.973Z,101151.09
2022-12-05T07:39:02.717Z,101154.38
2022-12-05T07:44:04.304Z,101160.13
2022-12-05T07:49:06.640Z,101168.50
2022-12-05T07:54:08.227Z,101169.31
2022-12-05T07:59:09.715Z,101174.72
2022-12-05T08:04:15.287Z,101171.78
2022-12-05T08:09:17.177Z,101177.22
2022-12-05T08:14:18.809Z,101183.31
2022-12-05T08:19:20.307Z,101190.72
2022-12-05T08:24:21.864Z,101189.41
2022-12-05T08:29:23.357Z,101195.75
2022-12-05T08:34:24.905Z,101206.59
2022-12-05T08:39:26.428Z,101204.44
2022-12-05T08:44:28.061Z,101207.94
2022-12-05T08:49:29.517Z,101208.50
2022-12-05T08:54:31.096Z,101211.50
2022-12-05T08:59:32.705Z,101215.03
2022-12-05T09:04:34.184Z,101222.44
2022-12-05T09:09:35.898Z,101224.09
2022-12-05T09:14:37.489Z,101214.22
2022-12-05T09:19:39.020Z,101221.06
2022-12-05T09:24:40.512Z,101232.09
2022-12-05T09:29:42.062Z,101237.59
2022-12-05T09:34:43.613Z,101237.50
2022-12-05T09:39:45.136Z,101246.34
2022-12-05T09:45:11.141Z,101236.03
2022-12-05T09:50:24.139Z,101244.09
2022-12-05T09:55:33.333Z,101242.34
2022-12-05T10:00:34.996Z,101241.03
2022-12-05T10:05:43.296Z,101245.34
2022-12-05T10:11:06.534Z,101249.94
2022-12-05T10:16:32.481Z,101249.66
2022-12-05T10:21:39.547Z,101247.84
2022-12-05T10:26:51.905Z,101249.06
2022-12-05T10:32:02.425Z,101242.75
2022-12-05T10:37:14.996Z,101244.88
2022-12-05T10:42:28.114Z,101250.00
2022-12-05T10:47:30.419Z,101248.47
2022-12-05T10:52:32.199Z,101244.56
2022-12-05T10:57:33.695Z,101249.69
2022-12-05T11:02:35.291Z,101249.25
2022-12-05T11:07:46.915Z,101246.66
2022-12-05T11:12:49.875Z,101245.25
2022-12-05T11:17:53.813Z,101243.56
2022-12-05T11:22:56.537Z,101239.44
2022-12-05T11:28:01.584Z,101243.63
2022-12-05T11:33:20.961Z,101246.06
2022-12-05T11:38:26.994Z,101233.88
2022-12-05T11:43:28.400Z,101240.00
2022-12-05T11:48:41.823Z,101237.72
2022-12-05T11:53:58.480Z,101231.06
2022-12-05T11:59:08.801Z,101230.78
2022-12-05T12:04:35.076Z,101231.16
2022-12-05T12:10:07.002Z,101223.16
2022-12-05T12:15:25.149Z,101223.66
2022-12-05T12:20:41.768Z,101220.84
2022-12-05T12:25:49.193Z,101222.53
2022-12-05T12:30:50.630Z,101223.66
2022-12-05T12:36:18.865Z,101225.03
2022-12-05T12:41:44.111Z,101219.09
2022-12-05T12:47:04.405Z,101216.41
2022-12-05T12:52:13.633Z,101227.34
2022-12-05T12:57:44.585Z,101223.75
2022-12-05T13:02:54.431Z,101221.59
2022-12-05T13:08:00.370Z,101225.28
2022-12-05T13:13:03.934Z,101223.00
2022-12-05T13:18:06.258Z,101222.25
2022-12-05T13:23:16.306Z,101225.69
2022-12-05T13:28:25.712Z,101226.84
2022-12-05T13:33:41.811Z,101227.56
2022-12-05T13:38:43.310Z,101228.44
2022-12-05T13:44:05.418Z,101229.06
2022-12-05T13:49:31.465Z,101240.56
2022-12-05T13:54:35.301Z,101243.94
2022-12-05T14:00:08.114Z,101247.34
2022-12-05T14:05:16.176Z,101248.66
2022-12-05T14:10:42.006Z,101245.84
2022-12-05T14:15:45.584Z,101250.97
2022-12-05T14:20:54.141Z,101250.00
2022-12-05T14:26:14.122Z,101252.28
2022-12-05T14:31:31.884Z,101251.47
2022-12-05T14:36:33.537Z,101252.06
2022-12-05T14:41:35.700Z,101248.03
2022-12-05T14:46:37.406Z,101241.22
2022-12-05T14:51:42.012Z,101244.34
2022-12-05T14:56:50.841Z,101250.97
2022-12-05T15:01:57.001Z,101252.72
2022-12-05T15:07:08.299Z,101257.78
2022-12-05T15:12:25.009Z,101260.00
2022-12-05T15:17:37.861Z,101265.38
2022-12-05T15:22:39.413Z,101266.31
2022-12-05T15:27:40.921Z,101276.97
2022-12-05T15:32:42.477Z,101281.19
2022-12-05T15:37:53.174Z,101276.84
2022-12-05T15:42:57.702Z,101283.31
2022-12-05T15:48:05.358Z,101285.78
2022-12-05T15:53:33.141Z,101293.63
2022-12-05T15:58:36.974Z,101284.44
2022-12-05T16:03:47.443Z,101296.34
2022-12-05T16:08:51.783Z,101293.81
2022-12-05T16:14:00.953Z,101301.94
2022-12-05T16:19:16.512Z,101310.53
2022-12-05T16:24:21.983Z,101309.94
2022-12-05T16:29:29.330Z,101309.78
2022-12-05T16:34:33.827Z,101312.00
2022-12-05T16:39:35.416Z,101325.09
2022-12-05T16:44:45.882Z,101328.63
2022-12-05T16:49:47.581Z,101333.44
2022-12-05T16:54:49.518Z,101327.81
2022-12-05T16:59:51.329Z,101323.09
2022-12-05T17:04:52.940Z,101334.75
2022-12-05T17:09:54.744Z,101335.72
2022-12-05T17:14:56.667Z,101345.00
2022-12-05T17:19:58.466Z,101347.34
2022-12-05T17:25:00.442Z,101347.69
